sensor_id;sensor_type;location;lat;lon;timestamp;pressure;altitude;pressure_sealevel;temperature;humidity
36254;BME280;22291;52.250;21.228;2023-02-19T00:01:46;99694.67;;;2.46;88.25
36254;BME280;22291;52.250;21.228;2023-02-19T00:04:17;99693.87;;;2.42;88.19
36254;BME280;22291;52.250;21.228;2023-02-19T00:06:48;99699.73;;;2.39;88.15
36254;BME280;22291;52.250;21.228;2023-02-19T00:09:17;99689.88;;;2.37;88.14
36254;BME280;22291;52.250;21.228;2023-02-19T00:11:46;99688.52;;;2.35;88.30
36254;BME280;22291;52.250;21.228;2023-02-19T00:14:19;99693.88;;;2.32;88.21
36254;BME280;22291;52.250;21.228;2023-02-19T00:16:48;99687.47;;;2.31;88.18
36254;BME280;22291;52.250;21.228;2023-02-19T00:19:17;99678.40;;;2.29;88.17
36254;BME280;22291;52.250;21.228;2023-02-19T00:21:53;99678.12;;;2.28;88.10
36254;BME280;22291;52.250;21.228;2023-02-19T00:24:21;99677.86;;;2.24;88.09
36254;BME280;22291;52.250;21.228;2023-02-19T00:26:47;99680.55;;;2.22;88.18
36254;BME280;22291;52.250;21.228;2023-02-19T00:29:18;99676.53;;;2.19;88.15
36254;BME280;22291;52.250;21.228;2023-02-19T00:31:48;99668.00;;;2.17;88.20
36254;BME280;22291;52.250;21.228;2023-02-19T00:34:14;99674.67;;;2.17;88.11
36254;BME280;22291;52.250;21.228;2023-02-19T00:36:42;99677.34;;;2.17;88.22
36254;BME280;22291;52.250;21.228;2023-02-19T00:39:15;99680.28;;;2.18;88.16
36254;BME280;22291;52.250;21.228;2023-02-19T00:41:44;99669.88;;;2.17;88.11
36254;BME280;22291;52.250;21.228;2023-02-19T00:44:13;99664.52;;;2.14;87.97
36254;BME280;22291;52.250;21.228;2023-02-19T00:46:45;99662.14;;;2.15;87.93
36254;BME280;22291;52.250;21.228;2023-02-19T00:49:19;99660.02;;;2.15;87.91
36254;BME280;22291;52.250;21.228;2023-02-19T00:51:49;99657.86;;;2.14;87.82
36254;BME280;22291;52.250;21.228;2023-02-19T00:54:19;99660.28;;;2.13;87.65
36254;BME280;22291;52.250;21.228;2023-02-19T00:56:49;99661.06;;;2.14;87.65
36254;BME280;22291;52.250;21.228;2023-02-19T00:59:17;99670.93;;;2.16;87.66
36254;BME280;22291;52.250;21.228;2023-02-19T01:01:44;99663.47;;;2.15;87.54
36254;BME280;22291;52.250;21.228;2023-02-19T01:04:12;99657.33;;;2.12;87.49
36254;BME280;22291;52.250;21.228;2023-02-19T01:06:38;99670.93;;;2.16;87.40
36254;BME280;22291;52.250;21.228;2023-02-19T01:09:04;99670.66;;;2.17;87.43
36254;BME280;22291;52.250;21.228;2023-02-19T01:11:34;99667.20;;;2.17;87.39
36254;BME280;22291;52.250;21.228;2023-02-19T01:14:03;99662.39;;;2.19;87.33
36254;BME280;22291;52.250;21.228;2023-02-19T01:16:31;99670.14;;;2.20;87.14
36254;BME280;22291;52.250;21.228;2023-02-19T01:18:59;99670.14;;;2.20;87.03
36254;BME280;22291;52.250;21.228;2023-02-19T01:21:28;99666.12;;;2.23;86.97
36254;BME280;22291;52.250;21.228;2023-02-19T01:23:58;99667.19;;;2.24;87.00
36254;BME280;22291;52.250;21.228;2023-02-19T01:26:27;99668.52;;;2.24;86.82
36254;BME280;22291;52.250;21.228;2023-02-19T01:28:58;99664.27;;;2.23;86.60
36254;BME280;22291;52.250;21.228;2023-02-19T01:31:27;99661.34;;;2.25;86.47
36254;BME280;22291;52.250;21.228;2023-02-19T01:33:56;99664.00;;;2.25;86.49
36254;BME280;22291;52.250;21.228;2023-02-19T01:36:27;99659.73;;;2.27;86.43
36254;BME280;22291;52.250;21.228;2023-02-19T01:38:54;99667.20;;;2.27;86.36
36254;BME280;22291;52.250;21.228;2023-02-19T01:41:25;99656.50;;;2.30;86.33
36254;BME280;22291;52.250;21.228;2023-02-19T01:43:54;99665.59;;;2.29;86.09
36254;BME280;22291;52.250;21.228;2023-02-19T01:46:35;99665.84;;;2.30;86.17
36254;BME280;22291;52.250;21.228;2023-02-19T01:49:12;99662.38;;;2.29;85.97
36254;BME280;22291;52.250;21.228;2023-02-19T01:51:57;99661.33;;;2.30;86.01
36254;BME280;22291;52.250;21.228;2023-02-19T01:54:24;99664.79;;;2.31;85.84
36254;BME280;22291;52.250;21.228;2023-02-19T01:56:55;99663.19;;;2.32;85.81
36254;BME280;22291;52.250;21.228;2023-02-19T01:59:24;99663.19;;;2.32;85.59
36254;BME280;22291;52.250;21.228;2023-02-19T02:01:52;99664.50;;;2.35;85.34
36254;BME280;22291;52.250;21.228;2023-02-19T02:04:18;99658.92;;;2.34;85.32
36254;BME280;22291;52.250;21.228;2023-02-19T02:06:57;99650.91;;;2.34;85.38
36254;BME280;22291;52.250;21.228;2023-02-19T02:09:29;99651.70;;;2.34;85.26
36254;BME280;22291;52.250;21.228;2023-02-19T02:12:14;99655.16;;;2.35;85.20
36254;BME280;22291;52.250;21.228;2023-02-19T02:14:43;99659.44;;;2.36;84.94
36254;BME280;22291;52.250;21.228;2023-02-19T02:17:30;99659.98;;;2.35;84.96
36254;BME280;22291;52.250;21.228;2023-02-19T02:32:08;99655.44;;;2.36;84.90
36254;BME280;22291;52.250;21.228;2023-02-19T02:35:09;99664.50;;;2.35;84.83
36254;BME280;22291;52.250;21.228;2023-02-19T02:37:29;99663.71;;;2.34;84.92
36254;BME280;22291;52.250;21.228;2023-02-19T02:39:59;99662.38;;;2.34;85.06
36254;BME280;22291;52.250;21.228;2023-02-19T02:42:27;99663.44;;;2.33;84.90
36254;BME280;22291;52.250;21.228;2023-02-19T02:44:56;99668.26;;;2.34;84.98
36254;BME280;22291;52.250;21.228;2023-02-19T02:47:52;99671.44;;;2.33;84.99
36254;BME280;22291;52.250;21.228;2023-02-19T02:50:32;99667.98;;;2.33;85.05
36254;BME280;22291;52.250;21.228;2023-02-19T02:53:04;99667.44;;;2.33;85.12
36254;BME280;22291;52.250;21.228;2023-02-19T02:55:53;99662.64;;;2.33;85.32
36254;BME280;22291;52.250;21.228;2023-02-19T02:58:21;99668.52;;;2.32;85.32
36254;BME280;22291;52.250;21.228;2023-02-19T03:00:51;99669.86;;;2.32;85.40
36254;BME280;22291;52.250;21.228;2023-02-19T03:03:42;99671.19;;;2.32;85.54
36254;BME280;22291;52.250;21.228;2023-02-19T03:06:12;99663.73;;;2.32;85.74
36254;BME280;22291;52.250;21.228;2023-02-19T03:08:57;99660.78;;;2.31;85.84
36254;BME280;22291;52.250;21.228;2023-02-19T03:11:25;99653.56;;;2.31;85.90
36254;BME280;22291;52.250;21.228;2023-02-19T03:14:20;99657.06;;;2.32;85.91
36254;BME280;22291;52.250;21.228;2023-02-19T03:17:12;99654.39;;;2.32;86.18
36254;BME280;22291;52.250;21.228;2023-02-19T03:19:53;99661.58;;;2.31;86.22
36254;BME280;22291;52.250;21.228;2023-02-19T03:22:24;99654.66;;;2.30;86.34
36254;BME280;22291;52.250;21.228;2023-02-19T03:25:03;99649.83;;;2.30;86.50
36254;BME280;22291;52.250;21.228;2023-02-19T03:27:57;99661.05;;;2.29;86.44
36254;BME280;22291;52.250;21.228;2023-02-19T03:30:30;99664.51;;;2.30;86.59
36254;BME280;22291;52.250;21.228;2023-02-19T03:33:02;99663.73;;;2.27;86.59
36254;BME280;22291;52.250;21.228;2023-02-19T03:35:40;99654.91;;;2.26;86.78
36254;BME280;22291;52.250;21.228;2023-02-19T03:38:11;99660.52;;;2.24;86.66
36254;BME280;22291;52.250;21.228;2023-02-19T03:40:54;99652.77;;;2.23;86.83
36254;BME280;22291;52.250;21.228;2023-02-19T03:43:19;99659.45;;;2.23;86.71
36254;BME280;22291;52.250;21.228;2023-02-19T03:46:05;99653.86;;;2.22;87.00
36254;BME280;22291;52.250;21.228;2023-02-19T03:48:43;99660.25;;;2.21;86.94
36254;BME280;22291;52.250;21.228;2023-02-19T03:51:31;99653.59;;;2.18;86.84
36254;BME280;22291;52.250;21.228;2023-02-19T03:54:19;99652.78;;;2.18;86.91
36254;BME280;22291;52.250;21.228;2023-02-19T03:57:12;99647.20;;;2.17;87.00
36254;BME280;22291;52.250;21.228;2023-02-19T04:02:33;99640.27;;;2.13;86.94
36254;BME280;22291;52.250;21.228;2023-02-19T04:05:15;99643.20;;;2.12;86.79
36254;BME280;22291;52.250;21.228;2023-02-19T04:07:48;99642.92;;;2.11;86.82
36254;BME280;22291;52.250;21.228;2023-02-19T04:10:19;99646.92;;;2.11;86.70
36254;BME280;22291;52.250;21.228;2023-02-19T04:12:58;99637.08;;;2.06;86.52
36254;BME280;22291;52.250;21.228;2023-02-19T04:15:29;99644.00;;;2.02;86.42
36254;BME280;22291;52.250;21.228;2023-02-19T04:18:03;99638.13;;;1.97;86.47
36254;BME280;22291;52.250;21.228;2023-02-19T04:20:37;99641.07;;;1.93;86.45
36254;BME280;22291;52.250;21.228;2023-02-19T04:23:08;99642.41;;;1.88;86.47
36254;BME280;22291;52.250;21.228;2023-02-19T04:25:37;99641.88;;;1.86;86.46
36254;BME280;22291;52.250;21.228;2023-02-19T04:28:07;99633.34;;;1.81;86.57
36254;BME280;22291;52.250;21.228;2023-02-19T04:30:34;99633.86;;;1.78;86.53
36254;BME280;22291;52.250;21.228;2023-02-19T04:33:01;99619.72;;;1.75;86.42
36254;BME280;22291;52.250;21.228;2023-02-19T04:35:28;99617.61;;;1.72;86.54
36254;BME280;22291;52.250;21.228;2023-02-19T04:37:55;99619.21;;;1.71;86.48
36254;BME280;22291;52.250;21.228;2023-02-19T04:40:22;99612.28;;;1.67;86.52
36254;BME280;22291;52.250;21.228;2023-02-19T04:42:48;99616.55;;;1.65;86.55
36254;BME280;22291;52.250;21.228;2023-02-19T04:45:16;99602.39;;;1.60;86.53
36254;BME280;22291;52.250;21.228;2023-02-19T04:47:42;99609.31;;;1.58;86.64
36254;BME280;22291;52.250;21.228;2023-02-19T04:50:09;99611.72;;;1.55;86.80
36254;BME280;22291;52.250;21.228;2023-02-19T04:52:35;99605.86;;;1.53;86.71
36254;BME280;22291;52.250;21.228;2023-02-19T04:55:05;99607.47;;;1.48;86.88
36254;BME280;22291;52.250;21.228;2023-02-19T04:57:34;99612.78;;;1.46;86.84
36254;BME280;22291;52.250;21.228;2023-02-19T05:00:02;99619.17;;;1.42;86.91
36254;BME280;22291;52.250;21.228;2023-02-19T05:02:30;99627.18;;;1.40;86.92
36254;BME280;22291;52.250;21.228;2023-02-19T05:04:56;99624.23;;;1.39;86.87
36254;BME280;22291;52.250;21.228;2023-02-19T05:07:22;99623.16;;;1.37;86.95
36254;BME280;22291;52.250;21.228;2023-02-19T05:09:49;99617.30;;;1.35;87.08
36254;BME280;22291;52.250;21.228;2023-02-19T05:12:15;99612.23;;;1.34;87.05
36254;BME280;22291;52.250;21.228;2023-02-19T05:14:41;99617.56;;;1.34;87.24
36254;BME280;22291;52.250;21.228;2023-02-19T05:17:09;99613.83;;;1.32;87.28
36254;BME280;22291;52.250;21.228;2023-02-19T05:19:35;99613.83;;;1.32;87.26
36254;BME280;22291;52.250;21.228;2023-02-19T05:22:01;99618.09;;;1.30;87.10
36254;BME280;22291;52.250;21.228;2023-02-19T05:24:27;99620.50;;;1.29;87.36
36254;BME280;22291;52.250;21.228;2023-02-19T05:26:55;99607.44;;;1.28;87.32
36254;BME280;22291;52.250;21.228;2023-02-19T05:29:23;99607.69;;;1.29;87.42
36254;BME280;22291;52.250;21.228;2023-02-19T05:31:50;99600.52;;;1.29;87.44
36254;BME280;22291;52.250;21.228;2023-02-19T05:34:17;99599.19;;;1.29;87.46
36254;BME280;22291;52.250;21.228;2023-02-19T05:36:44;99602.89;;;1.31;87.42
36254;BME280;22291;52.250;21.228;2023-02-19T05:39:11;99603.72;;;1.32;87.57
36254;BME280;22291;52.250;21.228;2023-02-19T05:41:38;99599.72;;;1.32;87.62
36254;BME280;22291;52.250;21.228;2023-02-19T05:44:06;99602.37;;;1.34;87.68
36254;BME280;22291;52.250;21.228;2023-02-19T05:46:34;99604.77;;;1.36;87.81
36254;BME280;22291;52.250;21.228;2023-02-19T05:49:00;99600.23;;;1.36;87.84
36254;BME280;22291;52.250;21.228;2023-02-19T05:51:29;99589.31;;;1.38;87.94
36254;BME280;22291;52.250;21.228;2023-02-19T05:53:57;99599.20;;;1.40;87.94
36254;BME280;22291;52.250;21.228;2023-02-19T05:59:07;99592.54;;;1.40;87.88
36254;BME280;22291;52.250;21.228;2023-02-19T06:01:34;99589.59;;;1.39;87.87
36254;BME280;22291;52.250;21.228;2023-02-19T06:04:00;99595.20;;;1.40;87.93
36254;BME280;22291;52.250;21.228;2023-02-19T06:06:27;99601.32;;;1.40;87.92
36254;BME280;22291;52.250;21.228;2023-02-19T06:08:56;99602.39;;;1.42;87.96
36254;BME280;22291;52.250;21.228;2023-02-19T06:11:24;99602.11;;;1.41;88.05
36254;BME280;22291;52.250;21.228;2023-02-19T06:13:50;99597.86;;;1.42;88.20
36254;BME280;22291;52.250;21.228;2023-02-19T06:16:18;99593.06;;;1.42;88.28
36254;BME280;22291;52.250;21.228;2023-02-19T06:18:46;99599.45;;;1.46;88.35
36254;BME280;22291;52.250;21.228;2023-02-19T06:21:16;99590.41;;;1.47;88.40
36254;BME280;22291;52.250;21.228;2023-02-19T06:23:45;99589.32;;;1.48;88.43
36254;BME280;22291;52.250;21.228;2023-02-19T06:26:17;99595.72;;;1.49;88.57
36254;BME280;22291;52.250;21.228;2023-02-19T06:28:48;99602.94;;;1.52;88.62
36254;BME280;22291;52.250;21.228;2023-02-19T06:31:18;99595.20;;;1.53;88.58
36254;BME280;22291;52.250;21.228;2023-02-19T06:33:47;99600.55;;;1.55;88.65
36254;BME280;22291;52.250;21.228;2023-02-19T06:36:17;99606.13;;;1.56;88.65
36254;BME280;22291;52.250;21.228;2023-02-19T06:38:47;99606.14;;;1.59;88.68
36254;BME280;22291;52.250;21.228;2023-02-19T06:41:15;99604.55;;;1.60;88.65
36254;BME280;22291;52.250;21.228;2023-02-19T06:43:45;99605.86;;;1.63;88.80
36254;BME280;22291;52.250;21.228;2023-02-19T06:46:14;99605.06;;;1.65;88.76
36254;BME280;22291;52.250;21.228;2023-02-19T06:48:43;99601.32;;;1.68;88.83
36254;BME280;22291;52.250;21.228;2023-02-19T06:51:12;99595.47;;;1.72;88.98
36254;BME280;22291;52.250;21.228;2023-02-19T06:53:44;99604.00;;;1.76;88.90
36254;BME280;22291;52.250;21.228;2023-02-19T06:56:25;99602.14;;;1.79;88.90
36254;BME280;22291;52.250;21.228;2023-02-19T06:58:54;99602.68;;;1.84;88.56
36254;BME280;22291;52.250;21.228;2023-02-19T07:01:28;99605.86;;;1.89;88.60
36254;BME280;22291;52.250;21.228;2023-02-19T07:03:57;99600.00;;;1.92;88.53
36254;BME280;22291;52.250;21.228;2023-02-19T07:06:26;99604.80;;;1.95;88.26
36254;BME280;22291;52.250;21.228;2023-02-19T07:08:54;99611.45;;;1.97;88.15
36254;BME280;22291;52.250;21.228;2023-02-19T07:11:31;99618.94;;;1.98;88.02
36254;BME280;22291;52.250;21.228;2023-02-19T07:14:01;99620.52;;;1.99;87.88
36254;BME280;22291;52.250;21.228;2023-02-19T07:16:30;99621.33;;;2.02;87.82
36254;BME280;22291;52.250;21.228;2023-02-19T07:18:58;99625.85;;;2.04;87.90
36254;BME280;22291;52.250;21.228;2023-02-19T07:21:25;99626.41;;;2.06;87.86
36254;BME280;22291;52.250;21.228;2023-02-19T07:23:54;99628.25;;;2.11;88.07
36254;BME280;22291;52.250;21.228;2023-02-19T07:26:22;99627.19;;;2.12;87.81
36254;BME280;22291;52.250;21.228;2023-02-19T07:28:50;99626.92;;;2.13;87.86
36254;BME280;22291;52.250;21.228;2023-02-19T07:31:19;99632.77;;;2.18;87.84
36254;BME280;22291;52.250;21.228;2023-02-19T07:33:49;99633.05;;;2.19;87.67
36254;BME280;22291;52.250;21.228;2023-02-19T07:36:18;99629.32;;;2.20;87.54
36254;BME280;22291;52.250;21.228;2023-02-19T07:38:46;99628.78;;;2.20;87.52
36254;BME280;22291;52.250;21.228;2023-02-19T07:41:14;99631.97;;;2.22;87.55
36254;BME280;22291;52.250;21.228;2023-02-19T07:43:42;99631.98;;;2.25;87.55
36254;BME280;22291;52.250;21.228;2023-02-19T07:46:11;99635.72;;;2.27;87.43
36254;BME280;22291;52.250;21.228;2023-02-19T07:48:41;99636.22;;;2.31;87.52
36254;BME280;22291;52.250;21.228;2023-02-19T07:51:17;99641.30;;;2.33;87.38
36254;BME280;22291;52.250;21.228;2023-02-19T07:53:46;99641.83;;;2.37;87.53
36254;BME280;22291;52.250;21.228;2023-02-19T07:56:17;99644.20;;;2.41;87.30
36254;BME280;22291;52.250;21.228;2023-02-19T07:58:45;99643.42;;;2.43;87.23
36254;BME280;22291;52.250;21.228;2023-02-19T08:01:15;99643.68;;;2.47;87.20
36254;BME280;22291;52.250;21.228;2023-02-19T08:03:45;99643.11;;;2.50;87.27
36254;BME280;22291;52.250;21.228;2023-02-19T08:06:13;99651.11;;;2.55;87.46
36254;BME280;22291;52.250;21.228;2023-02-19T08:08:39;99647.09;;;2.63;87.40
36254;BME280;22291;52.250;21.228;2023-02-19T08:11:08;99650.56;;;2.66;86.92
36254;BME280;22291;52.250;21.228;2023-02-19T08:13:53;99650.81;;;2.70;86.68
36254;BME280;22291;52.250;21.228;2023-02-19T08:16:21;99642.78;;;2.72;86.25
36254;BME280;22291;52.250;21.228;2023-02-19T08:18:48;99655.62;;;2.70;85.85
36254;BME280;22291;52.250;21.228;2023-02-19T08:21:16;99662.02;;;2.72;86.08
36254;BME280;22291;52.250;21.228;2023-02-19T08:23:44;99656.69;;;2.72;86.20
36254;BME280;22291;52.250;21.228;2023-02-19T08:26:11;99657.75;;;2.73;86.07
36254;BME280;22291;52.250;21.228;2023-02-19T08:28:39;99664.16;;;2.75;85.89
36254;BME280;22291;52.250;21.228;2023-02-19T08:31:10;99666.82;;;2.72;85.32
36254;BME280;22291;52.250;21.228;2023-02-19T08:33:38;99666.03;;;2.72;85.51
36254;BME280;22291;52.250;21.228;2023-02-19T08:36:08;99667.89;;;2.74;85.49
36254;BME280;22291;52.250;21.228;2023-02-19T08:38:37;99668.44;;;2.76;85.28
36254;BME280;22291;52.250;21.228;2023-02-19T08:41:09;99668.95;;;2.75;85.33
36254;BME280;22291;52.250;21.228;2023-02-19T08:43:40;99679.09;;;2.78;85.40
36254;BME280;22291;52.250;21.228;2023-02-19T08:46:09;99677.75;;;2.86;85.73
36254;BME280;22291;52.250;21.228;2023-02-19T08:48:38;99668.11;;;2.93;85.45
36254;BME280;22291;52.250;21.228;2023-02-19T08:51:09;99680.38;;;2.94;85.05
36254;BME280;22291;52.250;21.228;2023-02-19T08:53:38;99673.43;;;2.95;84.96
36254;BME280;22291;52.250;21.228;2023-02-19T08:56:08;99681.16;;;2.99;84.91
36254;BME280;22291;52.250;21.228;2023-02-19T08:58:38;99671.27;;;3.03;84.76
36254;BME280;22291;52.250;21.228;2023-02-19T09:01:10;99673.94;;;3.05;84.39
36254;BME280;22291;52.250;21.228;2023-02-19T09:03:40;99668.84;;;3.09;84.63
36254;BME280;22291;52.250;21.228;2023-02-19T09:06:06;99668.03;;;3.13;84.60
36254;BME280;22291;52.250;21.228;2023-02-19T09:08:44;99673.62;;;3.14;84.67
36254;BME280;22291;52.250;21.228;2023-02-19T09:11:12;99674.69;;;3.18;84.19
36254;BME280;22291;52.250;21.228;2023-02-19T09:13:40;99675.48;;;3.19;84.01
36254;BME280;22291;52.250;21.228;2023-02-19T09:16:09;99675.20;;;3.21;83.80
36254;BME280;22291;52.250;21.228;2023-02-19T09:18:37;99676.27;;;3.22;83.60
36254;BME280;22291;52.250;21.228;2023-02-19T09:21:05;99673.32;;;3.21;82.98
36254;BME280;22291;52.250;21.228;2023-02-19T09:23:34;99668.52;;;3.21;83.19
36254;BME280;22291;52.250;21.228;2023-02-19T09:26:04;99673.32;;;3.21;83.51
36254;BME280;22291;52.250;21.228;2023-02-19T09:28:35;99676.76;;;3.27;83.53
36254;BME280;22291;52.250;21.228;2023-02-19T09:31:13;99683.72;;;3.28;83.21
36254;BME280;22291;52.250;21.228;2023-02-19T09:33:43;99681.80;;;3.33;83.19
36254;BME280;22291;52.250;21.228;2023-02-19T09:36:14;99678.56;;;3.42;83.45
36254;BME280;22291;52.250;21.228;2023-02-19T09:38:41;99670.75;;;3.50;82.58
36254;BME280;22291;52.250;21.228;2023-02-19T09:41:21;99662.45;;;3.54;82.46
36254;BME280;22291;52.250;21.228;2023-02-19T09:43:59;99669.89;;;3.60;82.22
36254;BME280;22291;52.250;21.228;2023-02-19T09:46:46;99683.75;;;3.67;82.19
36254;BME280;22291;52.250;21.228;2023-02-19T09:54:35;99675.96;;;3.73;81.39
36254;BME280;22291;52.250;21.228;2023-02-19T09:57:05;99677.78;;;3.81;81.60
36254;BME280;22291;52.250;21.228;2023-02-19T09:59:50;99678.49;;;3.91;81.85
36254;BME280;22291;52.250;21.228;2023-02-19T10:02:21;99683.08;;;4.76;82.11
36254;BME280;22291;52.250;21.228;2023-02-19T10:04:52;99682.95;;;5.51;82.02
36254;BME280;22291;52.250;21.228;2023-02-19T10:07:25;99683.19;;;6.26;81.88
36254;BME280;22291;52.250;21.228;2023-02-19T10:09:59;99678.23;;;6.91;81.48
36254;BME280;22291;52.250;21.228;2023-02-19T10:12:31;99674.50;;;7.28;78.85
36254;BME280;22291;52.250;21.228;2023-02-19T10:15:08;99682.02;;;7.54;76.06
36254;BME280;22291;52.250;21.228;2023-02-19T10:17:45;99679.00;;;7.81;76.48
36254;BME280;22291;52.250;21.228;2023-02-19T10:20:15;99677.40;;;8.36;72.99
36254;BME280;22291;52.250;21.228;2023-02-19T10:22:44;99685.55;;;8.56;71.75
36254;BME280;22291;52.250;21.228;2023-02-19T10:25:15;99680.16;;;8.45;69.78
36254;BME280;22291;52.250;21.228;2023-02-19T10:27:43;99681.02;;;8.20;69.34
36254;BME280;22291;52.250;21.228;2023-02-19T10:30:18;99694.44;;;7.89;69.02
36254;BME280;22291;52.250;21.228;2023-02-19T10:33:02;99696.03;;;7.54;69.20
36254;BME280;22291;52.250;21.228;2023-02-19T10:35:27;99692.06;;;7.26;69.19
36254;BME280;22291;52.250;21.228;2023-02-19T10:37:55;99697.77;;;6.97;69.46
36254;BME280;22291;52.250;21.228;2023-02-19T10:40:26;99691.58;;;6.82;69.41
36254;BME280;22291;52.250;21.228;2023-02-19T10:42:55;99692.74;;;6.62;69.66
36254;BME280;22291;52.250;21.228;2023-02-19T10:45:44;99694.83;;;6.51;70.38
36254;BME280;22291;52.250;21.228;2023-02-19T10:48:22;99687.16;;;6.45;70.04
36254;BME280;22291;52.250;21.228;2023-02-19T10:50:56;99705.31;;;6.81;71.23
36254;BME280;22291;52.250;21.228;2023-02-19T10:53:42;99698.98;;;7.55;72.85
36254;BME280;22291;52.250;21.228;2023-02-19T10:56:26;99703.98;;;7.84;69.78
36254;BME280;22291;52.250;21.228;2023-02-19T10:59:59;99704.02;;;7.81;68.11
36254;BME280;22291;52.250;21.228;2023-02-19T11:02:00;99708.92;;;7.68;67.75
36254;BME280;22291;52.250;21.228;2023-02-19T11:04:31;99706.53;;;7.41;67.36
36254;BME280;22291;52.250;21.228;2023-02-19T11:07:14;99701.52;;;7.23;67.85
36254;BME280;22291;52.250;21.228;2023-02-19T11:09:46;99714.55;;;7.05;67.52
36254;BME280;22291;52.250;21.228;2023-02-19T11:12:29;99712.45;;;6.88;67.51
36254;BME280;22291;52.250;21.228;2023-02-19T11:15:16;99705.86;;;6.66;67.66
36254;BME280;22291;52.250;21.228;2023-02-19T11:21:01;99715.77;;;6.52;68.27
36254;BME280;22291;52.250;21.228;2023-02-19T11:23:35;99704.03;;;6.48;68.49
36254;BME280;22291;52.250;21.228;2023-02-19T11:26:14;99703.66;;;6.38;67.90
36254;BME280;22291;52.250;21.228;2023-02-19T11:28:45;99709.25;;;6.25;67.39
36254;BME280;22291;52.250;21.228;2023-02-19T11:31:29;99713.45;;;6.15;67.12
36254;BME280;22291;52.250;21.228;2023-02-19T11:36:43;99702.55;;;5.87;67.45
36254;BME280;22291;52.250;21.228;2023-02-19T11:42:03;99711.53;;;5.61;67.71
36254;BME280;22291;52.250;21.228;2023-02-19T11:53:24;99712.46;;;5.51;69.17
36254;BME280;22291;52.250;21.228;2023-02-19T11:59:06;99710.84;;;6.43;71.95
36254;BME280;22291;52.250;21.228;2023-02-19T12:05:22;99720.86;;;7.51;69.25
36254;BME280;22291;52.250;21.228;2023-02-19T12:22:28;99736.58;;;8.19;62.98
36254;BME280;22291;52.250;21.228;2023-02-19T12:25:06;99736.02;;;7.97;63.19
36254;BME280;22291;52.250;21.228;2023-02-19T12:27:48;99744.31;;;7.98;63.32
36254;BME280;22291;52.250;21.228;2023-02-19T12:30:41;99745.27;;;7.79;62.54
36254;BME280;22291;52.250;21.228;2023-02-19T12:39:51;99744.67;;;6.74;62.48
36254;BME280;22291;52.250;21.228;2023-02-19T12:45:18;99755.63;;;6.47;63.37
36254;BME280;22291;52.250;21.228;2023-02-19T12:48:00;99763.61;;;6.52;64.65
36254;BME280;22291;52.250;21.228;2023-02-19T12:50:43;99765.97;;;7.01;66.69
36254;BME280;22291;52.250;21.228;2023-02-19T12:56:17;99766.16;;;8.44;66.80
36254;BME280;22291;52.250;21.228;2023-02-19T12:58:49;99771.01;;;9.27;65.50
36254;BME280;22291;52.250;21.228;2023-02-19T13:01:21;99769.93;;;9.75;63.34
36254;BME280;22291;52.250;21.228;2023-02-19T13:06:35;99764.28;;;10.61;62.12
36254;BME280;22291;52.250;21.228;2023-02-19T13:09:17;99754.41;;;10.65;58.60
36254;BME280;22291;52.250;21.228;2023-02-19T21:59:23;100334.02;;;0.06;67.35
36254;BME280;22291;52.250;21.228;2023-02-19T22:01:49;100337.59;;;-0.03;67.50
36254;BME280;22291;52.250;21.228;2023-02-19T22:04:19;100334.36;;;-0.05;67.56
36254;BME280;22291;52.250;21.228;2023-02-19T22:06:46;100334.36;;;-0.05;67.52
36254;BME280;22291;52.250;21.228;2023-02-19T22:09:14;100330.08;;;-0.06;67.81
36254;BME280;22291;52.250;21.228;2023-02-19T22:11:41;100334.06;;;-0.06;67.90
36254;BME280;22291;52.250;21.228;2023-02-19T22:14:10;100339.38;;;-0.06;67.85
36254;BME280;22291;52.250;21.228;2023-02-19T22:16:36;100342.05;;;-0.06;67.94
36254;BME280;22291;52.250;21.228;2023-02-19T22:19:03;100347.09;;;-0.07;67.95
36254;BME280;22291;52.250;21.228;2023-02-19T22:21:32;100343.34;;;-0.08;68.21
36254;BME280;22291;52.250;21.228;2023-02-19T22:24:01;100339.15;;;-0.04;68.96
36254;BME280;22291;52.250;21.228;2023-02-19T22:26:30;100353.11;;;0.03;68.83
36254;BME280;22291;52.250;21.228;2023-02-19T22:29:01;100350.78;;;0.07;68.78
36254;BME280;22291;52.250;21.228;2023-02-19T22:31:31;100357.48;;;0.09;68.69
36254;BME280;22291;52.250;21.228;2023-02-19T22:33:59;100367.36;;;0.11;68.66
36254;BME280;22291;52.250;21.228;2023-02-19T22:36:29;100356.95;;;0.10;68.72
36254;BME280;22291;52.250;21.228;2023-02-19T22:39:00;100359.62;;;0.10;68.76
36254;BME280;22291;52.250;21.228;2023-02-19T22:41:28;100349.21;;;0.08;68.76
36254;BME280;22291;52.250;21.228;2023-02-19T22:43:56;100337.57;;;0.12;68.78
36254;BME280;22291;52.250;21.228;2023-02-19T22:46:28;100341.56;;;0.12;68.90
36254;BME280;22291;52.250;21.228;2023-02-19T22:49:00;100352.83;;;0.16;68.99
36254;BME280;22291;52.250;21.228;2023-02-19T22:51:28;100346.56;;;0.23;69.40
36254;BME280;22291;52.250;21.228;2023-02-19T22:53:58;100349.25;;;0.25;69.05
36254;BME280;22291;52.250;21.228;2023-02-19T22:56:28;100340.77;;;0.26;69.05
36254;BME280;22291;52.250;21.228;2023-02-19T22:58:56;100336.72;;;0.23;68.91
36254;BME280;22291;52.250;21.228;2023-02-19T23:01:25;100347.66;;;0.24;69.00
36254;BME280;22291;52.250;21.228;2023-02-19T23:03:54;100354.81;;;0.24;68.99
36254;BME280;22291;52.250;21.228;2023-02-19T23:06:26;100347.92;;;0.25;69.21
36254;BME280;22291;52.250;21.228;2023-02-19T23:08:57;100343.94;;;0.25;69.26
36254;BME280;22291;52.250;21.228;2023-02-19T23:11:29;100335.72;;;0.27;69.24
36254;BME280;22291;52.250;21.228;2023-02-19T23:13:58;100327.50;;;0.28;69.39
36254;BME280;22291;52.250;21.228;2023-02-19T23:16:28;100327.80;;;0.29;69.45
36254;BME280;22291;52.250;21.228;2023-02-19T23:18:56;100339.30;;;0.32;69.50
36254;BME280;22291;52.250;21.228;2023-02-19T23:21:22;100337.99;;;0.35;69.49
36254;BME280;22291;52.250;21.228;2023-02-19T23:23:49;100334.86;;;0.38;69.49
36254;BME280;22291;52.250;21.228;2023-02-19T23:26:16;100339.94;;;0.40;69.49